createdAt,value
2017-06-14T00:00:06.231Z,87.1
2017-06-14T00:01:13.868Z,87.5
2017-06-14T00:02:21.031Z,87.1
2017-06-14T00:03:28.531Z,85.4
2017-06-14T00:04:36.013Z,86.7
2017-06-14T00:05:43.499Z,87.2
2017-06-14T00:06:51.139Z,87
2017-06-14T00:07:58.618Z,88.2
2017-06-14T00:09:06.107Z,87.3
2017-06-14T00:10:13.591Z,87.8
2017-06-14T00:11:21.084Z,85.3
2017-06-14T00:12:28.213Z,87.6
2017-06-14T00:13:35.693Z,88
2017-06-14T00:14:43.175Z,87.9
2017-06-14T00:15:50.329Z,87.3
2017-06-14T00:16:57.811Z,88.1
2017-06-14T00:18:05.441Z,88.4
2017-06-14T00:19:12.919Z,88.6
2017-06-14T00:20:20.080Z,88.4
2017-06-14T00:21:27.563Z,88.1
2017-06-14T00:22:35.047Z,87.9
2017-06-14T00:23:42.682Z,87.3
2017-06-14T00:24:50.169Z,89.3
2017-06-14T00:25:57.650Z,88.5
2017-06-14T00:27:05.134Z,88.9
2017-06-14T00:28:12.619Z,89.8
2017-06-14T00:29:20.294Z,88.9
2017-06-14T00:30:27.778Z,87.5
2017-06-14T00:31:34.927Z,88.1
2017-06-14T00:32:42.412Z,88.4
2017-06-14T00:33:49.898Z,89.4
2017-06-14T00:34:57.532Z,88.6
2017-06-14T00:36:05.018Z,88.5
2017-06-14T00:37:12.507Z,88.9
2017-06-14T00:38:20.005Z,89.3
2017-06-14T00:39:27.498Z,88.5
2017-06-14T00:40:35.132Z,89.8
2017-06-14T00:41:42.625Z,87.9
2017-06-14T00:42:50.107Z,89.8
2017-06-14T00:43:57.587Z,87.6
2017-06-14T00:45:05.072Z,88.8
2017-06-14T00:46:12.522Z,88.8
2017-06-14T00:47:20.005Z,88.5
2017-06-14T00:48:27.489Z,89.1
2017-06-14T00:49:34.978Z,90
2017-06-14T00:50:42.474Z,89.2
2017-06-14T00:51:49.780Z,89.6
2017-06-14T00:52:57.270Z,90
2017-06-14T00:54:04.424Z,90.1
2017-06-14T00:55:11.912Z,89.7
2017-06-14T00:56:19.064Z,88.7
2017-06-14T00:57:26.706Z,89
2017-06-14T00:58:34.184Z,89.2
2017-06-14T00:59:41.675Z,88.2
2017-06-14T01:00:49.154Z,89.1
2017-06-14T01:01:56.640Z,88.2
2017-06-14T01:03:04.276Z,90.3
2017-06-14T01:04:11.756Z,89.6
2017-06-14T01:05:19.238Z,89.1
2017-06-14T01:06:26.392Z,89.6
2017-06-14T01:07:33.877Z,89.6
2017-06-14T01:08:41.509Z,89.6
2017-06-14T01:09:49.014Z,90.4
2017-06-14T01:10:56.493Z,90.3
2017-06-14T01:12:03.975Z,90
2017-06-14T01:13:11.462Z,89.6
2017-06-14T01:14:19.095Z,89.6
2017-06-14T01:15:26.585Z,89.5
2017-06-14T01:16:34.069Z,89.5
2017-06-14T01:17:41.550Z,89.6
2017-06-14T01:18:49.030Z,89.5
2017-06-14T01:19:56.668Z,90.4
2017-06-14T01:21:04.151Z,90.1
2017-06-14T01:22:11.645Z,90
2017-06-14T01:23:19.130Z,89.5
2017-06-14T01:24:26.617Z,89.5
2017-06-14T01:25:34.251Z,89.8
2017-06-14T01:26:41.738Z,90.2
2017-06-14T01:27:49.223Z,89.5
2017-06-14T01:28:56.707Z,90.2
2017-06-14T01:30:03.863Z,90
2017-06-14T01:31:11.511Z,89.4
2017-06-14T01:32:18.997Z,89.4
2017-06-14T01:33:26.488Z,89.9
2017-06-14T01:34:33.976Z,89.4
2017-06-14T01:35:41.454Z,90.1
2017-06-14T01:36:49.144Z,90
2017-06-14T01:37:56.300Z,89.3
2017-06-14T01:39:03.783Z,89.3
2017-06-14T01:40:11.273Z,89.3
2017-06-14T01:41:18.423Z,89.8
2017-06-14T01:42:26.058Z,88.4
2017-06-14T01:43:33.531Z,89.3
2017-06-14T01:44:41.013Z,89.2
2017-06-14T01:45:48.503Z,89.1
2017-06-14T01:46:55.983Z,89.6
2017-06-14T01:48:03.622Z,88.3
2017-06-14T01:49:11.104Z,88.1
2017-06-14T01:50:18.588Z,89.8
2017-06-14T01:51:26.076Z,87.6
2017-06-14T01:52:33.566Z,90.1
2017-06-14T01:53:41.199Z,87.9
2017-06-14T01:54:48.705Z,89.8
2017-06-14T01:55:56.185Z,90.3
2017-06-14T01:57:03.672Z,89.6
2017-06-14T01:58:11.167Z,88.9
2017-06-14T01:59:18.476Z,88.9
2017-06-14T02:00:25.961Z,89.1
2017-06-14T02:01:33.450Z,90
2017-06-14T02:02:40.934Z,89.7
2017-06-14T02:03:48.421Z,88.9
2017-06-14T02:04:56.050Z,88.5
2017-06-14T02:06:03.557Z,89.4
2017-06-14T02:07:11.043Z,89.8
2017-06-14T02:08:18.532Z,90.5
2017-06-14T02:09:26.013Z,89.5
2017-06-14T02:10:33.661Z,90.1
2017-06-14T02:11:41.148Z,90.4
2017-06-14T02:12:48.303Z,88.7
2017-06-14T02:13:55.790Z,90.3
2017-06-14T02:15:02.942Z,90
2017-06-14T02:16:10.304Z,90.3
2017-06-14T02:17:17.785Z,88.4
2017-06-14T02:18:25.268Z,90.3
2017-06-14T02:19:32.754Z,90
2017-06-14T02:20:39.903Z,90.3
2017-06-14T02:21:47.542Z,90.1
2017-06-14T02:22:55.022Z,90.4
2017-06-14T02:24:01.855Z,90.4
2017-06-14T02:25:09.339Z,90.5
2017-06-14T02:26:16.829Z,90.7
2017-06-14T02:27:24.515Z,90.7
2017-06-14T02:28:32.009Z,90.4
2017-06-14T02:29:39.495Z,90.6
2017-06-14T02:30:46.977Z,90.5
2017-06-14T02:31:54.464Z,90.4
2017-06-14T02:33:02.101Z,90.3
2017-06-14T02:34:09.595Z,90.5
2017-06-14T02:35:17.097Z,90.6
2017-06-14T02:36:24.587Z,90.5
2017-06-14T02:37:31.744Z,90.6
2017-06-14T02:38:39.052Z,90.7
2017-06-14T02:39:46.535Z,90.9
2017-06-14T02:40:53.684Z,90.8
2017-06-14T02:42:01.166Z,90.8
2017-06-14T02:43:08.327Z,90.7
2017-06-14T02:44:15.299Z,91
2017-06-14T02:45:22.779Z,91
2017-06-14T02:46:29.934Z,91.6
2017-06-14T02:47:37.097Z,91.1
2017-06-14T02:48:44.590Z,91.5
2017-06-14T02:49:52.224Z,91.2
2017-06-14T02:50:59.710Z,91.2
2017-06-14T02:52:07.194Z,90.9
2017-06-14T02:53:14.679Z,91
2017-06-14T02:54:22.162Z,91.3
2017-06-14T02:55:29.135Z,91.4
2017-06-14T02:56:36.616Z,91.3
2017-06-14T02:57:44.095Z,91.1
2017-06-14T02:58:51.240Z,91.2
2017-06-14T02:59:58.731Z,91.5
2017-06-14T03:01:06.381Z,91.5
2017-06-14T03:02:13.864Z,91.8
2017-06-14T03:03:21.346Z,91.3
2017-06-14T03:04:28.829Z,91.5
2017-06-14T03:05:36.314Z,92.2
2017-06-14T03:06:43.954Z,91.8
2017-06-14T03:07:51.432Z,91.7
2017-06-14T03:08:58.919Z,91.2
2017-06-14T03:10:06.407Z,91.5
2017-06-14T03:11:13.891Z,91.7
2017-06-14T03:12:21.195Z,92.1
2017-06-14T03:13:28.678Z,92.3
2017-06-14T03:14:35.829Z,92
2017-06-14T03:15:43.310Z,91.9
2017-06-14T03:16:50.800Z,92.2
2017-06-14T03:17:58.432Z,92.4
2017-06-14T03:19:05.578Z,92.3
2017-06-14T03:20:13.061Z,92.2
2017-06-14T03:21:20.547Z,92.3
2017-06-14T03:22:28.027Z,92.2
2017-06-14T03:23:35.189Z,92
2017-06-14T03:24:42.667Z,92.4
2017-06-14T03:25:50.156Z,91.3
2017-06-14T03:26:57.642Z,91.9
2017-06-14T03:28:05.125Z,92.3
2017-06-14T03:29:12.603Z,92.1
2017-06-14T03:30:20.079Z,92.3
2017-06-14T03:31:27.568Z,92
2017-06-14T03:32:35.047Z,92.1
2017-06-14T03:33:42.530Z,91.5
2017-06-14T03:34:50.015Z,91.8
2017-06-14T03:35:57.498Z,91.8
2017-06-14T03:37:04.651Z,91.7
2017-06-14T03:38:11.805Z,91.8
2017-06-14T03:39:19.291Z,92
2017-06-14T03:40:26.933Z,92.2
2017-06-14T03:41:34.084Z,92.4
2017-06-14T03:42:41.563Z,92.4
2017-06-14T03:43:49.052Z,91.6
2017-06-14T03:44:56.531Z,92
2017-06-14T03:46:04.164Z,92.2
2017-06-14T03:47:11.643Z,91.7
2017-06-14T03:48:19.137Z,91.4
2017-06-14T03:49:26.617Z,91.6
2017-06-14T03:50:33.771Z,92.1
2017-06-14T03:51:41.407Z,91.9
2017-06-14T03:52:48.884Z,91.9
2017-06-14T03:53:56.375Z,92
2017-06-14T03:55:03.890Z,92
2017-06-14T03:56:11.378Z,92.3
2017-06-14T03:57:19.017Z,92
2017-06-14T03:58:26.535Z,92
2017-06-14T03:59:34.020Z,91.9
2017-06-14T04:00:41.508Z,92.1
2017-06-14T04:01:48.998Z,91.8
2017-06-14T04:02:56.638Z,92.2
2017-06-14T04:04:04.123Z,92.5
2017-06-14T04:05:11.601Z,92.3
2017-06-14T04:06:19.100Z,91.9
2017-06-14T04:07:26.588Z,91.5
2017-06-14T04:08:34.225Z,92
2017-06-14T04:09:41.729Z,91.9
2017-06-14T04:10:49.214Z,92.1
2017-06-14T04:11:56.704Z,91.8
2017-06-14T04:13:04.183Z,91.9
2017-06-14T04:14:11.816Z,91.9
2017-06-14T04:15:19.290Z,91.9
2017-06-14T04:16:26.442Z,91.3
2017-06-14T04:17:33.927Z,91.6
2017-06-14T04:18:41.407Z,91.6
2017-06-14T04:19:49.045Z,91.7
2017-06-14T04:20:56.525Z,91.8
2017-06-14T04:22:04.010Z,91.8
2017-06-14T04:23:11.491Z,91.7
2017-06-14T04:24:18.972Z,91.7
2017-06-14T04:25:26.453Z,91.8
2017-06-14T04:26:33.937Z,92.4
2017-06-14T04:27:41.422Z,92.1
2017-06-14T04:28:48.904Z,92.4
2017-06-14T04:29:56.387Z,92
2017-06-14T04:31:03.873Z,91.6
2017-06-14T04:32:11.357Z,92.2
2017-06-14T04:33:18.837Z,91.8
2017-06-14T04:34:26.318Z,91.9
2017-06-14T04:35:33.804Z,91.9
2017-06-14T04:36:41.291Z,91.9
2017-06-14T04:37:49.018Z,91.7
2017-06-14T04:38:56.501Z,92.2
2017-06-14T04:40:03.981Z,92.4
2017-06-14T04:41:11.459Z,92.1
2017-06-14T04:43:26.051Z,92.1
2017-06-14T04:44:33.538Z,92.2
2017-06-14T04:45:41.018Z,92.1
2017-06-14T04:46:48.500Z,92
2017-06-14T04:47:55.657Z,91.9
2017-06-14T04:49:03.134Z,91.8
2017-06-14T04:50:10.614Z,91.9
2017-06-14T04:51:18.091Z,91.8
2017-06-14T04:52:25.570Z,91.9
2017-06-14T04:53:32.721Z,91.8
2017-06-14T04:54:40.210Z,91.8
2017-06-14T04:55:47.697Z,91.6
2017-06-14T04:56:55.196Z,91.6
2017-06-14T04:58:02.678Z,91.7
2017-06-14T04:59:10.187Z,91.6
2017-06-14T05:00:17.666Z,91.7
2017-06-14T05:01:25.152Z,91.7
2017-06-14T05:02:32.311Z,91.5
2017-06-14T05:03:39.799Z,91.7
2017-06-14T05:04:46.957Z,91.5
2017-06-14T05:05:54.451Z,91.3
2017-06-14T05:07:01.933Z,91.4
2017-06-14T05:08:09.417Z,91.4
2017-06-14T05:09:16.913Z,91.2
2017-06-14T05:10:24.069Z,91.4
2017-06-14T05:11:31.548Z,91.4
2017-06-14T05:12:39.028Z,91.5
2017-06-14T05:13:46.521Z,91.2
2017-06-14T05:14:54.008Z,91.1
2017-06-14T05:16:01.498Z,90.8
2017-06-14T05:17:08.981Z,91.1
2017-06-14T05:18:16.468Z,90.9
2017-06-14T05:19:23.959Z,90.8
2017-06-14T05:20:31.441Z,90.8
2017-06-14T05:21:38.928Z,90.7
2017-06-14T05:22:46.413Z,90.5
2017-06-14T05:23:53.905Z,90.5
2017-06-14T05:25:01.389Z,90.5
2017-06-14T05:26:08.875Z,90.4
2017-06-14T05:27:16.385Z,90.4
2017-06-14T05:28:23.851Z,89.8
2017-06-14T05:29:31.015Z,90.1
2017-06-14T05:30:38.497Z,89.7
2017-06-14T05:31:45.978Z,89.2
2017-06-14T05:32:53.469Z,89.3
2017-06-14T05:34:00.617Z,88.3
2017-06-14T05:35:08.102Z,87.4
2017-06-14T05:36:15.580Z,87.4
2017-06-14T05:37:23.369Z,90
2017-06-14T05:38:30.861Z,87.3
2017-06-14T05:39:38.342Z,85.6
2017-06-14T05:40:45.827Z,85.5
2017-06-14T05:41:53.310Z,83.7
2017-06-14T05:43:00.847Z,84.8
2017-06-14T05:44:08.326Z,85.2
2017-06-14T05:45:15.807Z,84.2
2017-06-14T05:46:23.298Z,83.5
2017-06-14T05:47:30.795Z,83.1
2017-06-14T05:48:37.949Z,82.8
2017-06-14T05:49:45.436Z,83.3
2017-06-14T05:50:52.924Z,81.5
2017-06-14T05:52:00.415Z,81.2
2017-06-14T05:53:07.576Z,83.5
2017-06-14T05:54:15.066Z,81.6
2017-06-14T05:55:21.557Z,80
2017-06-14T05:56:29.039Z,81
2017-06-14T05:57:36.523Z,80.5
2017-06-14T05:58:43.681Z,80.2
2017-06-14T05:59:51.164Z,77.4
2017-06-14T06:00:58.323Z,80.6
2017-06-14T06:02:05.477Z,79
2017-06-14T06:03:12.963Z,84.6
2017-06-14T06:04:20.454Z,78.5
2017-06-14T06:05:27.615Z,77.7
2017-06-14T06:06:34.783Z,77.4
2017-06-14T06:07:42.285Z,78.1
2017-06-14T06:08:49.765Z,78
2017-06-14T06:09:57.263Z,76.8
2017-06-14T06:11:04.748Z,74.7
2017-06-14T06:12:12.239Z,74.4
2017-06-14T06:13:19.731Z,75
2017-06-14T06:14:27.211Z,75.8
2017-06-14T06:15:34.368Z,76.5
2017-06-14T06:16:41.860Z,78.6
2017-06-14T06:17:49.345Z,73.6
2017-06-14T06:18:56.830Z,76
2017-06-14T06:20:04.313Z,75.6
2017-06-14T06:21:11.800Z,78.3
2017-06-14T06:22:18.959Z,76.8
2017-06-14T06:23:26.446Z,78.5
2017-06-14T06:24:33.970Z,75.7
2017-06-14T06:25:41.454Z,72.7
2017-06-14T06:26:48.937Z,71.4
2017-06-14T06:27:56.423Z,71.5
2017-06-14T06:29:03.911Z,69.8
2017-06-14T06:30:11.074Z,74.1
2017-06-14T06:31:18.570Z,76
2017-06-14T06:32:26.049Z,72.3
2017-06-14T06:33:33.562Z,69.7
2017-06-14T06:34:40.716Z,70.8
2017-06-14T06:35:48.207Z,73.4
2017-06-14T06:36:55.703Z,73
2017-06-14T06:38:02.875Z,70.4
2017-06-14T06:39:10.398Z,71.3
2017-06-14T06:40:17.878Z,69
2017-06-14T06:41:25.367Z,70.7
2017-06-14T06:42:32.852Z,70
2017-06-14T06:43:40.334Z,68.3
2017-06-14T06:44:47.825Z,69.9
2017-06-14T06:45:55.312Z,66.9
2017-06-14T06:47:02.478Z,67.9
2017-06-14T06:48:09.332Z,66.6
2017-06-14T06:49:16.827Z,68.1
2017-06-14T06:50:24.311Z,65.7
2017-06-14T06:51:31.817Z,68.6
2017-06-14T06:52:39.300Z,65.5
2017-06-14T06:53:46.785Z,67.1
2017-06-14T06:54:54.273Z,68.9
2017-06-14T06:56:01.761Z,67.6
2017-06-14T06:57:09.258Z,64.1
2017-06-14T06:58:16.745Z,68.5
2017-06-14T06:59:24.234Z,67
2017-06-14T07:00:31.644Z,65.5
2017-06-14T07:01:38.803Z,66.3
2017-06-14T07:02:46.290Z,63.1
2017-06-14T07:03:53.462Z,64.4
2017-06-14T07:05:00.614Z,65.1
2017-06-14T07:07:15.222Z,63.8
2017-06-14T07:08:22.709Z,66.6
2017-06-14T07:09:29.866Z,64.3
2017-06-14T07:10:37.025Z,66.3
2017-06-14T07:11:44.183Z,62.6
2017-06-14T07:12:51.666Z,64.7
2017-06-14T07:13:59.160Z,63.7
2017-06-14T07:15:06.654Z,63.1
2017-06-14T07:16:14.142Z,65
2017-06-14T07:17:21.640Z,67.2
2017-06-14T07:18:29.131Z,65.8
2017-06-14T07:19:36.624Z,62.4
2017-06-14T07:20:44.117Z,65.2
2017-06-14T07:21:51.615Z,62.2
2017-06-14T07:22:58.780Z,63.2
2017-06-14T07:24:06.273Z,63.2
2017-06-14T07:25:13.428Z,63.1
2017-06-14T07:26:20.919Z,58.9
2017-06-14T07:27:28.079Z,58
2017-06-14T07:28:35.871Z,60.8
2017-06-14T07:29:43.370Z,59.4
2017-06-14T07:30:50.864Z,59.2
2017-06-14T07:31:58.359Z,60.4
2017-06-14T07:33:05.856Z,61
2017-06-14T07:34:13.344Z,63.1
2017-06-14T07:35:20.837Z,61.7
2017-06-14T07:36:28.323Z,64.4
2017-06-14T07:37:35.816Z,61.5
2017-06-14T07:38:42.974Z,61.7
2017-06-14T07:39:50.463Z,58.9
2017-06-14T07:40:57.963Z,58.7
2017-06-14T07:42:05.447Z,58.5
2017-06-14T07:43:12.943Z,60.1
2017-06-14T07:44:20.102Z,61.2
2017-06-14T07:45:27.593Z,60
2017-06-14T07:46:35.081Z,58
2017-06-14T07:47:42.572Z,60.9
2017-06-14T07:48:50.063Z,59.4
2017-06-14T07:49:57.702Z,57.2
2017-06-14T07:51:04.869Z,60.6
2017-06-14T07:52:12.365Z,56.8
2017-06-14T07:53:19.852Z,59.8
2017-06-14T07:54:27.348Z,61
2017-06-14T07:55:34.981Z,57.2
2017-06-14T07:56:41.818Z,58.9
2017-06-14T07:57:49.314Z,57.4
2017-06-14T07:58:56.807Z,57.2
2017-06-14T08:00:04.320Z,58
2017-06-14T08:01:11.970Z,57.8
2017-06-14T08:02:19.459Z,57.7
2017-06-14T08:03:26.948Z,58.7
2017-06-14T08:04:34.436Z,59.1
2017-06-14T08:05:41.932Z,57.5
2017-06-14T08:06:49.242Z,57.1
2017-06-14T08:07:56.733Z,53
2017-06-14T08:09:04.227Z,57
2017-06-14T08:10:11.718Z,57
2017-06-14T08:11:19.207Z,53.8
2017-06-14T08:12:26.855Z,56.3
2017-06-14T08:13:34.344Z,55.1
2017-06-14T08:14:41.835Z,54.6
2017-06-14T08:15:49.003Z,54.5
2017-06-14T08:16:56.495Z,53.3
2017-06-14T08:18:03.987Z,56.9
2017-06-14T08:19:11.492Z,54.5
2017-06-14T08:20:18.987Z,54.8
2017-06-14T08:21:26.481Z,57.9
2017-06-14T08:22:33.975Z,55.6
2017-06-14T08:23:41.469Z,53.9
2017-06-14T08:24:48.959Z,53
2017-06-14T08:25:56.456Z,55.8
2017-06-14T08:27:03.947Z,57
2017-06-14T08:28:11.435Z,55.1
2017-06-14T08:29:18.928Z,55.4
2017-06-14T08:30:26.428Z,52.2
2017-06-14T08:31:33.921Z,57
2017-06-14T08:32:41.415Z,52.3
2017-06-14T08:33:48.907Z,51.3
2017-06-14T08:34:56.396Z,51.4
2017-06-14T08:36:03.891Z,53
2017-06-14T08:37:11.386Z,52.4
2017-06-14T08:38:18.556Z,56.7
2017-06-14T08:39:26.045Z,53
2017-06-14T08:40:33.532Z,54.2
2017-06-14T08:41:41.025Z,52
2017-06-14T08:42:48.519Z,54.6
2017-06-14T08:43:56.019Z,53.4
2017-06-14T08:45:03.526Z,53
2017-06-14T08:46:10.692Z,52.1
2017-06-14T08:47:18.187Z,53.3
2017-06-14T08:48:25.368Z,51.9
2017-06-14T08:49:32.857Z,52.1
2017-06-14T08:50:40.347Z,52
2017-06-14T08:51:47.836Z,54.3
2017-06-14T08:52:55.333Z,53.6
2017-06-14T08:54:02.829Z,56.6
2017-06-14T08:55:10.328Z,53.2
2017-06-14T08:56:17.825Z,48.4
2017-06-14T08:57:25.320Z,49.3
2017-06-14T08:58:32.813Z,54.5
2017-06-14T08:59:40.306Z,52.2
2017-06-14T09:00:47.798Z,51.9
2017-06-14T09:01:54.956Z,51.1
2017-06-14T09:03:02.453Z,51.2
2017-06-14T09:04:09.951Z,50.8
2017-06-14T09:05:17.444Z,47.2
2017-06-14T09:06:24.935Z,49.9
2017-06-14T09:07:32.434Z,50.7
2017-06-14T09:08:39.926Z,49.5
2017-06-14T09:09:47.417Z,50.1
2017-06-14T09:10:54.582Z,48.9
2017-06-14T09:12:02.072Z,50.6
2017-06-14T09:13:09.239Z,52.1
2017-06-14T09:14:16.737Z,52.7
2017-06-14T09:15:24.244Z,52.9
2017-06-14T09:16:31.734Z,52.1
2017-06-14T09:17:39.226Z,49.3
2017-06-14T09:18:46.718Z,53.5
2017-06-14T09:19:54.213Z,51.9
2017-06-14T09:21:01.751Z,52.5
2017-06-14T09:22:09.241Z,55.4
2017-06-14T09:23:16.734Z,50.8
2017-06-14T09:24:24.230Z,54.2
2017-06-14T09:25:31.721Z,51.1
2017-06-14T09:26:39.213Z,52.1
2017-06-14T09:27:46.739Z,51.8
2017-06-14T09:28:54.237Z,52
2017-06-14T09:30:01.733Z,46.3
2017-06-14T09:31:08.906Z,48.7
2017-06-14T09:32:16.641Z,48.9
2017-06-14T09:33:24.121Z,51.4
2017-06-14T09:34:31.615Z,53.2
2017-06-14T09:35:39.118Z,49.6
2017-06-14T09:36:46.611Z,49.3
2017-06-14T09:37:54.110Z,48
2017-06-14T09:39:01.635Z,51.4
2017-06-14T09:40:09.131Z,51.2
2017-06-14T09:41:16.297Z,53
2017-06-14T09:42:23.459Z,51
2017-06-14T09:43:30.956Z,51.2
2017-06-14T09:44:38.453Z,52.9
2017-06-14T09:45:45.956Z,50
2017-06-14T09:46:53.120Z,50.8
2017-06-14T09:48:00.619Z,49.3
2017-06-14T09:49:08.110Z,52.3
2017-06-14T09:50:15.602Z,50.1
2017-06-14T09:51:23.101Z,51.6
2017-06-14T09:52:30.597Z,49
2017-06-14T09:53:38.082Z,53.6
2017-06-14T09:54:45.250Z,48
2017-06-14T09:55:52.767Z,48.6
2017-06-14T09:57:00.264Z,49.9
2017-06-14T09:58:07.754Z,49.8
2017-06-14T09:59:15.246Z,49
2017-06-14T10:00:22.740Z,48.6
2017-06-14T10:01:30.233Z,49.5
2017-06-14T10:02:37.731Z,49.9
2017-06-14T10:03:45.232Z,50.5
2017-06-14T10:04:52.723Z,50.5
2017-06-14T10:06:00.214Z,51.4
2017-06-14T10:07:07.710Z,49.2
2017-06-14T10:08:15.202Z,51.4
2017-06-14T10:09:22.701Z,55.3
2017-06-14T10:10:30.191Z,52.7
2017-06-14T10:11:37.688Z,51.6
2017-06-14T10:12:45.181Z,51.4
2017-06-14T10:13:52.677Z,52.1
2017-06-14T10:15:00.168Z,51.4
2017-06-14T10:16:07.659Z,50.1
2017-06-14T10:17:14.824Z,52.3
2017-06-14T10:18:22.319Z,52.5
2017-06-14T10:19:29.807Z,52.5
2017-06-14T10:20:37.301Z,51.5
2017-06-14T10:21:44.791Z,51
2017-06-14T10:22:52.285Z,52.4
2017-06-14T10:23:59.777Z,48.2
2017-06-14T10:25:07.271Z,49.6
2017-06-14T10:26:14.998Z,51.1
2017-06-14T10:27:22.485Z,50.3
2017-06-14T10:28:29.978Z,50.8
2017-06-14T10:29:37.161Z,52.4
2017-06-14T10:30:44.338Z,50.5
2017-06-14T10:31:51.852Z,48.8
2017-06-14T10:32:59.343Z,50.6
2017-06-14T10:34:06.835Z,50.3
2017-06-14T10:35:13.997Z,51.4
2017-06-14T10:36:21.484Z,49.3
2017-06-14T10:37:28.974Z,49.1
2017-06-14T10:38:36.476Z,49.6
2017-06-14T10:39:43.966Z,50.1
2017-06-14T10:40:51.462Z,53.4
2017-06-14T10:41:58.961Z,50.5
2017-06-14T10:43:06.601Z,51.9
2017-06-14T10:44:14.107Z,54.7
2017-06-14T10:45:21.598Z,50
2017-06-14T10:46:28.769Z,51.7
2017-06-14T10:47:36.259Z,48.9
2017-06-14T10:48:43.908Z,49.9
2017-06-14T10:49:51.406Z,47.4
2017-06-14T10:50:58.572Z,48.7
2017-06-14T10:52:06.093Z,48.9
2017-06-14T10:53:13.593Z,49.8
2017-06-14T10:54:21.245Z,43.9
2017-06-14T10:55:28.752Z,47.4
2017-06-14T10:56:36.240Z,44.4
2017-06-14T10:57:43.741Z,46.1
2017-06-14T10:58:51.234Z,43.9
2017-06-14T10:59:58.546Z,45.2
2017-06-14T11:01:06.048Z,45.7
2017-06-14T11:02:12.887Z,49.1
2017-06-14T11:03:20.397Z,44.9
2017-06-14T11:04:27.896Z,44.1
2017-06-14T11:05:35.539Z,43
2017-06-14T11:06:43.038Z,46.9
2017-06-14T11:07:50.210Z,46.7
2017-06-14T11:08:57.720Z,45
2017-06-14T11:10:05.214Z,46
2017-06-14T11:11:12.524Z,46.6
2017-06-14T11:12:19.692Z,44.4
2017-06-14T11:13:26.855Z,45.8
2017-06-14T11:14:34.354Z,45.6
2017-06-14T11:15:41.849Z,45.3
2017-06-14T11:16:49.492Z,43.5
2017-06-14T11:17:56.995Z,45.7
2017-06-14T11:19:04.489Z,46
2017-06-14T11:20:11.987Z,46.3
2017-06-14T11:21:19.482Z,42.1
2017-06-14T11:22:27.125Z,44.3
2017-06-14T11:23:34.298Z,44.5
2017-06-14T11:24:41.799Z,43.7
2017-06-14T11:25:49.299Z,42.2
2017-06-14T11:26:56.802Z,41.2
2017-06-14T11:28:04.448Z,43.3
2017-06-14T11:29:11.944Z,46.7
2017-06-14T11:30:19.435Z,43.9
2017-06-14T11:31:26.962Z,44.7
2017-06-14T11:32:34.125Z,43.7
2017-06-14T11:33:41.772Z,47.4
2017-06-14T11:34:49.270Z,49.4
2017-06-14T11:35:56.778Z,43.8
2017-06-14T11:37:04.274Z,43.5
2017-06-14T11:38:11.439Z,48
2017-06-14T11:39:19.085Z,43
2017-06-14T11:40:26.594Z,44.3
2017-06-14T11:41:34.099Z,44.1
2017-06-14T11:42:41.597Z,44.1
2017-06-14T11:43:49.089Z,45.5
2017-06-14T11:44:56.731Z,43.9
2017-06-14T11:46:04.224Z,42.5
2017-06-14T11:47:11.718Z,47.9
2017-06-14T11:48:19.212Z,45.8
2017-06-14T11:49:26.709Z,43.4
2017-06-14T11:50:34.356Z,46.3
2017-06-14T11:51:41.852Z,43
2017-06-14T11:52:49.343Z,42.9
2017-06-14T11:53:56.861Z,40.2
2017-06-14T11:55:04.359Z,39.6
2017-06-14T11:56:11.681Z,42.1
2017-06-14T11:57:19.413Z,46
2017-06-14T11:58:26.914Z,44.9
2017-06-14T11:59:34.639Z,39.8
2017-06-14T12:00:42.133Z,43.2
2017-06-14T12:01:49.780Z,42.4
2017-06-14T12:02:57.278Z,44.1
2017-06-14T12:04:04.449Z,41
2017-06-14T12:05:11.949Z,40.9
2017-06-14T12:06:19.453Z,40
2017-06-14T12:07:27.104Z,44.7
2017-06-14T12:08:34.266Z,42
2017-06-14T12:09:41.780Z,39.6
2017-06-14T12:10:49.286Z,41
2017-06-14T12:11:56.781Z,40.4
2017-06-14T12:13:04.426Z,40.3
2017-06-14T12:14:11.926Z,42
2017-06-14T12:15:19.429Z,41.3
2017-06-14T12:16:26.926Z,40.6
2017-06-14T12:17:34.088Z,40.8
2017-06-14T12:18:41.407Z,39.5
2017-06-14T12:19:48.899Z,40.8
2017-06-14T12:20:56.111Z,44.1
2017-06-14T12:22:03.624Z,43.4
2017-06-14T12:23:10.798Z,42
2017-06-14T12:24:18.440Z,39.8
2017-06-14T12:25:25.939Z,43.6
2017-06-14T12:26:33.434Z,40.9
2017-06-14T12:27:40.930Z,43.4
2017-06-14T12:28:48.432Z,44.8
2017-06-14T12:29:56.076Z,41.8
2017-06-14T12:31:03.569Z,40.7
2017-06-14T12:32:11.065Z,40.3
2017-06-14T12:33:18.573Z,40.3
2017-06-14T12:34:26.078Z,40.9
2017-06-14T12:35:33.737Z,42.3
2017-06-14T12:36:40.901Z,42.5
2017-06-14T12:37:48.398Z,42.6
2017-06-14T12:38:55.890Z,41.3
2017-06-14T12:40:03.386Z,41.1
2017-06-14T12:41:11.034Z,40
2017-06-14T12:42:18.196Z,40
2017-06-14T12:43:25.693Z,38.9
2017-06-14T12:44:33.191Z,37.8
2017-06-14T12:45:40.709Z,39
2017-06-14T12:46:48.351Z,37.6
2017-06-14T12:47:55.858Z,37.8
2017-06-14T12:49:03.355Z,39
2017-06-14T12:50:10.848Z,41.9
2017-06-14T12:51:18.349Z,40.2
2017-06-14T12:52:25.990Z,39.5
2017-06-14T12:53:33.484Z,42
2017-06-14T12:54:40.982Z,40.9
2017-06-14T12:55:48.483Z,38.5
2017-06-14T12:56:55.980Z,39.2
2017-06-14T12:58:03.626Z,39.6
2017-06-14T12:59:11.123Z,43.4
2017-06-14T13:00:17.963Z,40.3
2017-06-14T13:01:25.457Z,40.6
2017-06-14T13:02:32.962Z,40.4
2017-06-14T13:03:40.459Z,42
2017-06-14T13:04:47.308Z,40.9
2017-06-14T13:05:54.475Z,40.4
2017-06-14T13:07:01.971Z,41
2017-06-14T13:08:09.464Z,40.8
2017-06-14T13:09:16.958Z,42.1
2017-06-14T13:10:24.455Z,41.6
2017-06-14T13:11:31.950Z,43.3
2017-06-14T13:12:39.110Z,44
2017-06-14T13:13:46.607Z,42.8
2017-06-14T13:14:54.104Z,43.2
2017-06-14T13:16:01.598Z,40.3
2017-06-14T13:17:09.102Z,38.7
2017-06-14T13:18:16.600Z,39.3
2017-06-14T13:19:24.099Z,39.9
2017-06-14T13:20:31.602Z,38.6
2017-06-14T13:21:39.093Z,39.6
2017-06-14T13:22:46.588Z,40.7
2017-06-14T13:23:54.086Z,36.1
2017-06-14T13:25:01.581Z,36.8
2017-06-14T13:26:08.750Z,39.1
2017-06-14T13:27:16.244Z,39.4
2017-06-14T13:28:23.740Z,39.8
2017-06-14T13:29:31.265Z,39.1
2017-06-14T13:30:38.435Z,38.2
2017-06-14T13:31:45.606Z,37.9
2017-06-14T13:32:53.107Z,40.7
2017-06-14T13:34:00.607Z,40.5
2017-06-14T13:35:08.109Z,38.4
2017-06-14T13:36:15.645Z,37.9
2017-06-14T13:37:22.813Z,39.2
2017-06-14T13:38:30.314Z,38.5
2017-06-14T13:39:37.816Z,40
2017-06-14T13:40:45.312Z,39.6
2017-06-14T13:41:52.811Z,37.3
2017-06-14T13:43:00.308Z,38.1
2017-06-14T13:44:07.804Z,38.5
2017-06-14T13:45:15.300Z,37.3
2017-06-14T13:46:22.796Z,41.4
2017-06-14T13:47:30.289Z,37.1
2017-06-14T13:48:37.454Z,37.7
2017-06-14T13:49:44.948Z,38
2017-06-14T13:50:52.445Z,41.4
2017-06-14T13:51:59.956Z,40.6
2017-06-14T13:53:07.452Z,38.2
2017-06-14T13:54:14.954Z,39.3
2017-06-14T13:55:22.455Z,39.5
2017-06-14T13:56:29.958Z,36.1
2017-06-14T13:57:37.456Z,38.4
2017-06-14T13:58:44.952Z,37.2
2017-06-14T13:59:52.450Z,37.8
2017-06-14T14:00:59.617Z,38.6
2017-06-14T14:02:07.121Z,40.9
2017-06-14T14:03:14.616Z,40.6
2017-06-14T14:04:22.115Z,39.8
2017-06-14T14:05:29.289Z,40.3
2017-06-14T14:06:36.782Z,40.3
2017-06-14T14:07:44.289Z,42.6
2017-06-14T14:08:51.786Z,43.5
2017-06-14T14:09:59.281Z,40.1
2017-06-14T14:11:06.779Z,41.8
2017-06-14T14:12:14.277Z,38.4
2017-06-14T14:13:21.776Z,39.8
2017-06-14T14:14:29.274Z,38.7
2017-06-14T14:15:36.767Z,39.9
2017-06-14T14:16:44.263Z,39.9
2017-06-14T14:17:51.764Z,44.8
2017-06-14T14:18:59.262Z,39.2
2017-06-14T14:20:06.433Z,37.5
2017-06-14T14:21:13.926Z,38.6
2017-06-14T14:22:21.424Z,39.6
2017-06-14T14:23:28.932Z,39.1
2017-06-14T14:24:36.428Z,39.3
2017-06-14T14:25:43.929Z,40
2017-06-14T14:26:51.423Z,40.5
2017-06-14T14:27:58.585Z,41.2
2017-06-14T14:29:06.087Z,38.9
2017-06-14T14:30:13.611Z,40.3
2017-06-14T14:31:21.107Z,39.1
2017-06-14T14:32:28.606Z,39.2
2017-06-14T14:33:35.788Z,37.8
2017-06-14T14:34:43.287Z,37.1
2017-06-14T14:35:50.415Z,36.4
2017-06-14T14:36:57.925Z,37.1
2017-06-14T14:38:05.726Z,36.4
2017-06-14T14:39:13.224Z,35
2017-06-14T14:40:20.723Z,38.9
2017-06-14T14:41:28.219Z,39.2
2017-06-14T14:42:35.714Z,37.4
2017-06-14T14:43:42.877Z,38.5
2017-06-14T14:44:50.379Z,36.2
2017-06-14T14:45:57.890Z,36.9
2017-06-14T14:47:05.059Z,36.1
2017-06-14T14:48:12.226Z,36.7
2017-06-14T14:49:19.727Z,37.6
2017-06-14T14:50:27.227Z,36.3
2017-06-14T14:51:34.720Z,36.1
2017-06-14T14:52:42.221Z,38.2
2017-06-14T14:53:49.726Z,36.8
2017-06-14T14:54:57.246Z,38.4
2017-06-14T14:56:04.755Z,36.3
2017-06-14T14:57:12.256Z,36.6
2017-06-14T14:58:19.779Z,36.9
2017-06-14T14:59:27.277Z,36.7
2017-06-14T15:00:34.443Z,37.2
2017-06-14T15:01:41.946Z,39.6
2017-06-14T15:02:49.445Z,38.8
2017-06-14T15:03:56.942Z,38.8
2017-06-14T15:05:04.445Z,39.6
2017-06-14T15:06:11.613Z,39.5